sensor_id;sensor_type;location;lat;lon;timestamp;pressure;altitude;pressure_sealevel;temperature;humidity
29163;BME280;20331;53.144;8.208;2023-01-04T00:05:08;102032.78;;;8.14;82.71
29163;BME280;20331;53.144;8.208;2023-01-04T00:15:29;102009.59;;;8.14;82.60
29163;BME280;20331;53.144;8.208;2023-01-04T00:25:51;101992.38;;;8.13;82.47
29163;BME280;20331;53.144;8.208;2023-01-04T00:36:13;101949.41;;;8.15;82.20
29163;BME280;20331;53.144;8.208;2023-01-04T00:46:34;101933.97;;;8.12;82.44
29163;BME280;20331;53.144;8.208;2023-01-04T00:56:56;101903.03;;;8.26;81.71
29163;BME280;20331;53.144;8.208;2023-01-04T01:07:17;101878.97;;;8.31;81.39
29163;BME280;20331;53.144;8.208;2023-01-04T01:17:39;101846.25;;;8.38;81.83
29163;BME280;20331;53.144;8.208;2023-01-04T01:28:00;101829.88;;;8.49;81.12
29163;BME280;20331;53.144;8.208;2023-01-04T01:38:21;101818.69;;;8.49;80.98
29163;BME280;20331;53.144;8.208;2023-01-04T01:48:43;101802.34;;;8.48;81.79
29163;BME280;20331;53.144;8.208;2023-01-04T01:59:05;101770.47;;;8.61;81.36
29163;BME280;20331;53.144;8.208;2023-01-04T02:09:27;101731.78;;;8.58;82.12
29163;BME280;20331;53.144;8.208;2023-01-04T02:30:33;101699.19;;;8.51;85.31
29163;BME280;20331;53.144;8.208;2023-01-04T02:41:06;101670.81;;;8.48;86.45
29163;BME280;20331;53.144;8.208;2023-01-04T02:51:31;101639.88;;;8.47;87.07
29163;BME280;20331;53.144;8.208;2023-01-04T03:12:58;101572.06;;;8.40;90.81
29163;BME280;20331;53.144;8.208;2023-01-04T03:23:24;101528.97;;;8.48;91.36
29163;BME280;20331;53.144;8.208;2023-01-04T03:34:06;101505.91;;;8.35;93.37
29163;BME280;20331;53.144;8.208;2023-01-04T03:44:59;101493.03;;;8.35;94.76
29163;BME280;20331;53.144;8.208;2023-01-04T03:55:44;101456.03;;;8.39;96.00
29163;BME280;20331;53.144;8.208;2023-01-04T04:06:07;101442.97;;;8.52;95.12
29163;BME280;20331;53.144;8.208;2023-01-04T04:16:47;101408.66;;;8.47;96.85
29163;BME280;20331;53.144;8.208;2023-01-04T04:27:09;101373.91;;;8.72;94.46
29163;BME280;20331;53.144;8.208;2023-01-04T04:37:30;101353.34;;;8.69;96.23
29163;BME280;20331;53.144;8.208;2023-01-04T04:47:52;101354.06;;;8.77;96.54
29163;BME280;20331;53.144;8.208;2023-01-04T04:58:13;101308.16;;;8.97;96.77
29163;BME280;20331;53.144;8.208;2023-01-04T05:08:35;101306.25;;;9.10;97.02
29163;BME280;20331;53.144;8.208;2023-01-04T05:18:56;101276.75;;;9.25;96.64
29163;BME280;20331;53.144;8.208;2023-01-04T05:29:17;101275.56;;;9.42;96.70
29163;BME280;20331;53.144;8.208;2023-01-04T05:39:57;101244.34;;;9.53;97.45
29163;BME280;20331;53.144;8.208;2023-01-04T05:50:20;101248.31;;;9.72;96.63
29163;BME280;20331;53.144;8.208;2023-01-04T06:00:41;101235.94;;;9.86;96.85
29163;BME280;20331;53.144;8.208;2023-01-04T06:11:03;101225.25;;;10.02;95.55
29163;BME280;20331;53.144;8.208;2023-01-04T06:21:24;101230.91;;;10.21;96.04
29163;BME280;20331;53.144;8.208;2023-01-04T06:31:46;101222.13;;;10.28;96.24
29163;BME280;20331;53.144;8.208;2023-01-04T06:42:07;101209.50;;;10.53;96.31
29163;BME280;20331;53.144;8.208;2023-01-04T06:52:48;101197.38;;;10.55;96.46
29163;BME280;20331;53.144;8.208;2023-01-04T07:03:10;101205.00;;;10.59;97.24
29163;BME280;20331;53.144;8.208;2023-01-04T07:13:35;101187.84;;;10.55;98.85
29163;BME280;20331;53.144;8.208;2023-01-04T07:23:57;101203.19;;;10.63;100.00
29163;BME280;20331;53.144;8.208;2023-01-04T07:34:20;101190.81;;;10.75;98.49
29163;BME280;20331;53.144;8.208;2023-01-04T07:44:41;101164.91;;;10.75;98.69
29163;BME280;20331;53.144;8.208;2023-01-04T07:55:03;101145.84;;;10.79;98.86
29163;BME280;20331;53.144;8.208;2023-01-04T08:05:24;101121.66;;;10.80;98.52
29163;BME280;20331;53.144;8.208;2023-01-04T08:15:52;101132.56;;;10.91;98.22
29163;BME280;20331;53.144;8.208;2023-01-04T08:26:15;101133.22;;;10.99;98.22
29163;BME280;20331;53.144;8.208;2023-01-04T08:36:48;101126.88;;;11.11;98.02
29163;BME280;20331;53.144;8.208;2023-01-04T08:47:09;101156.84;;;11.20;97.56
29163;BME280;20331;53.144;8.208;2023-01-04T08:57:33;101124.06;;;11.19;98.51
29163;BME280;20331;53.144;8.208;2023-01-04T09:07:54;101118.69;;;11.25;98.28
29163;BME280;20331;53.144;8.208;2023-01-04T09:18:16;101123.31;;;11.15;100.00
29163;BME280;20331;53.144;8.208;2023-01-04T09:28:54;101110.00;;;11.27;99.31
29163;BME280;20331;53.144;8.208;2023-01-04T09:39:16;101115.09;;;11.30;100.00
29163;BME280;20331;53.144;8.208;2023-01-04T09:49:48;101094.13;;;11.38;100.00
29163;BME280;20331;53.144;8.208;2023-01-04T10:00:19;101105.03;;;11.49;100.00
29163;BME280;20331;53.144;8.208;2023-01-04T10:10:51;101090.41;;;11.48;100.00
29163;BME280;20331;53.144;8.208;2023-01-04T10:21:32;101083.22;;;11.56;100.00
29163;BME280;20331;53.144;8.208;2023-01-04T10:32:13;101068.31;;;11.64;100.00
29163;BME280;20331;53.144;8.208;2023-01-04T10:42:39;101076.69;;;11.73;99.79
29163;BME280;20331;53.144;8.208;2023-01-04T10:53:22;101060.28;;;11.73;100.00
29163;BME280;20331;53.144;8.208;2023-01-04T11:14:10;101037.47;;;11.84;100.00
29163;BME280;20331;53.144;8.208;2023-01-04T11:24:33;101029.31;;;11.94;100.00
29163;BME280;20331;53.144;8.208;2023-01-04T11:34:55;101021.59;;;11.93;100.00
29163;BME280;20331;53.144;8.208;2023-01-04T11:45:26;101018.22;;;12.17;99.57
29163;BME280;20331;53.144;8.208;2023-01-04T11:55:48;101007.94;;;12.14;100.00
29163;BME280;20331;53.144;8.208;2023-01-04T12:06:18;101009.38;;;12.23;100.00
29163;BME280;20331;53.144;8.208;2023-01-04T12:27:30;100972.06;;;12.27;100.00
29163;BME280;20331;53.144;8.208;2023-01-04T12:37:52;100969.53;;;12.24;100.00
29163;BME280;20331;53.144;8.208;2023-01-04T12:59:10;100960.88;;;12.25;100.00
29163;BME280;20331;53.144;8.208;2023-01-04T13:09:56;100956.78;;;12.42;100.00
29163;BME280;20331;53.144;8.208;2023-01-04T13:20:23;100937.38;;;12.52;100.00
29163;BME280;20331;53.144;8.208;2023-01-04T13:30:46;100922.50;;;12.57;99.97
29163;BME280;20331;53.144;8.208;2023-01-04T13:41:25;100927.28;;;12.68;98.50
29163;BME280;20331;53.144;8.208;2023-01-04T13:51:47;100922.16;;;12.66;99.11
29163;BME280;20331;53.144;8.208;2023-01-04T14:02:19;100928.81;;;12.73;98.05
29163;BME280;20331;53.144;8.208;2023-01-04T14:12:44;100919.94;;;12.79;97.30
29163;BME280;20331;53.144;8.208;2023-01-04T14:23:24;100930.72;;;12.68;98.07
29163;BME280;20331;53.144;8.208;2023-01-04T14:33:48;100928.34;;;12.62;97.80
29163;BME280;20331;53.144;8.208;2023-01-04T14:44:21;100931.16;;;12.56;97.50
29163;BME280;20331;53.144;8.208;2023-01-04T14:54:44;100940.06;;;12.49;97.00
29163;BME280;20331;53.144;8.208;2023-01-04T15:05:06;100921.22;;;12.44;96.34
29163;BME280;20331;53.144;8.208;2023-01-04T15:15:27;100922.16;;;12.43;95.71
29163;BME280;20331;53.144;8.208;2023-01-04T15:25:49;100929.34;;;12.35;95.39
29163;BME280;20331;53.144;8.208;2023-01-04T15:36:13;100938.72;;;12.39;95.04
29163;BME280;20331;53.144;8.208;2023-01-04T15:46:43;100937.13;;;12.35;94.32
29163;BME280;20331;53.144;8.208;2023-01-04T15:57:05;100935.53;;;12.31;94.18
29163;BME280;20331;53.144;8.208;2023-01-04T16:07:27;100909.94;;;12.22;93.84
29163;BME280;20331;53.144;8.208;2023-01-04T16:17:56;100922.09;;;12.20;94.19
29163;BME280;20331;53.144;8.208;2023-01-04T16:28:17;100928.88;;;12.24;92.95
29163;BME280;20331;53.144;8.208;2023-01-04T16:38:41;100938.19;;;12.30;91.92
29163;BME280;20331;53.144;8.208;2023-01-04T16:49:10;100969.03;;;12.14;93.58
29163;BME280;20331;53.144;8.208;2023-01-04T16:59:32;100938.09;;;12.08;93.02
29163;BME280;20331;53.144;8.208;2023-01-04T17:09:53;100930.53;;;12.02;92.52
29163;BME280;20331;53.144;8.208;2023-01-04T17:20:15;100934.84;;;12.03;92.84
29163;BME280;20331;53.144;8.208;2023-01-04T17:30:38;100916.09;;;11.95;92.51
29163;BME280;20331;53.144;8.208;2023-01-04T17:41:17;100926.25;;;12.01;92.19
29163;BME280;20331;53.144;8.208;2023-01-04T17:51:39;100927.31;;;11.95;92.59
29163;BME280;20331;53.144;8.208;2023-01-04T18:02:01;100934.91;;;12.00;92.13
29163;BME280;20331;53.144;8.208;2023-01-04T18:12:23;100907.31;;;11.99;92.44
29163;BME280;20331;53.144;8.208;2023-01-04T18:22:44;100920.09;;;12.03;91.18
29163;BME280;20331;53.144;8.208;2023-01-04T18:33:06;100912.50;;;11.99;91.05
29163;BME280;20331;53.144;8.208;2023-01-04T18:43:28;100900.97;;;11.83;92.81
29163;BME280;20331;53.144;8.208;2023-01-04T18:53:49;100887.19;;;11.81;93.35
29163;BME280;20331;53.144;8.208;2023-01-04T19:04:11;100918.78;;;11.92;92.40
29163;BME280;20331;53.144;8.208;2023-01-04T19:14:33;100900.25;;;11.78;91.02
29163;BME280;20331;53.144;8.208;2023-01-04T19:24:54;100902.84;;;11.52;91.94
29163;BME280;20331;53.144;8.208;2023-01-04T19:35:16;100915.50;;;11.59;92.08
29163;BME280;20331;53.144;8.208;2023-01-04T19:45:37;100920.19;;;11.76;90.52
29163;BME280;20331;53.144;8.208;2023-01-04T19:55:59;100926.28;;;11.75;89.38
29163;BME280;20331;53.144;8.208;2023-01-04T20:06:20;100939.34;;;11.72;89.08
29163;BME280;20331;53.144;8.208;2023-01-04T20:16:42;100941.16;;;11.70;87.13
29163;BME280;20331;53.144;8.208;2023-01-04T20:27:03;100965.72;;;11.57;87.82
29163;BME280;20331;53.144;8.208;2023-01-04T20:37:25;100974.38;;;11.56;88.67
29163;BME280;20331;53.144;8.208;2023-01-04T20:47:46;100974.78;;;11.44;89.83
29163;BME280;20331;53.144;8.208;2023-01-04T20:58:12;100985.72;;;11.26;92.04
29163;BME280;20331;53.144;8.208;2023-01-04T21:08:34;100982.59;;;11.14;93.29
29163;BME280;20331;53.144;8.208;2023-01-04T21:18:56;100995.88;;;11.02;95.10
29163;BME280;20331;53.144;8.208;2023-01-04T21:29:17;100990.34;;;10.56;96.35
29163;BME280;20331;53.144;8.208;2023-01-04T21:39:39;100996.47;;;10.52;98.85
29163;BME280;20331;53.144;8.208;2023-01-04T21:50:00;101003.19;;;10.59;98.13
29163;BME280;20331;53.144;8.208;2023-01-04T22:00:21;100995.53;;;10.85;96.13
29163;BME280;20331;53.144;8.208;2023-01-04T22:10:43;101008.94;;;10.99;95.07
29163;BME280;20331;53.144;8.208;2023-01-04T22:21:09;101013.41;;;10.94;94.51
29163;BME280;20331;53.144;8.208;2023-01-04T22:31:31;101035.53;;;11.04;93.29
29163;BME280;20331;53.144;8.208;2023-01-04T22:41:53;101043.22;;;11.07;93.70
29163;BME280;20331;53.144;8.208;2023-01-04T22:52:14;101048.47;;;11.06;93.77
29163;BME280;20331;53.144;8.208;2023-01-04T23:02:35;101058.22;;;10.96;95.82
29163;BME280;20331;53.144;8.208;2023-01-04T23:12:57;101066.66;;;10.72;98.47
29163;BME280;20331;53.144;8.208;2023-01-04T23:23:18;101085.66;;;10.71;98.14
29163;BME280;20331;53.144;8.208;2023-01-04T23:33:40;101088.16;;;10.74;96.32
29163;BME280;20331;53.144;8.208;2023-01-04T23:44:01;101095.84;;;10.77;95.36
29163;BME280;20331;53.144;8.208;2023-01-04T23:54:23;101102.75;;;10.78;95.21
